Azalea, Virginia
Current Conditions -  °F | °C
As of 10:54 PM on Wednesday 28 Jan 2015 (Local Time) from KOFP Reporting Station
Clear Clear  
Wind Chill: 28°   Ceiling: Unl
Heat Index: 28°   Visibility: 10mi
Dew Point:   Wind: 0mph
Humidity: 41%   Direction: NA
Pressure: 30.37"   Gusts: NA
Location:  37.619°N, 77.441°W
Report Text: KOFP 290354Z AUTO 00000KT 10SM CLR M02/M14 A3037 RMK AO2 SLP284 T10221139
Loading
Personal Weather Stations






























Interactive Weather Map New forecast layout! Learn more

10-Day Weather Forecast

Advertisements
Track Severe Weather on mobile